메인 페이지
METAR-TAF:

METAR-TAF

공항 :

무르탈라 모하메드 국제공항

라고스, 나이지리아

위도: 06-35N, 경도: 003-20E, 고도: 40m

METAR: 누락

시각: 20:27 (19:27 UTC)

예보

예보는 33 시간 42분 전, 09:45시(UTC)에 발표되었습니다.
예보 대상 시간: 19일 12시부터 20일 18시까지 (UTC)
남서10kt
시정 10km 이상
고도 1300ft 상공 구름 많음
고도 2000ft 상공 구름 조금, 적란운.
일시적
19일 13시부터 19일 19시까지 (UTC)
고도 1300ft 상공 구름 많음
고도 2000ft 상공 구름 조금, 적란운.
뇌우
전환 중
19일 21시부터 19일 23시까지 (UTC)
여러 방향의 바람 2kt
고도 900ft 상공 구름 보통

TAF: DNMM 190945Z 1912/2018 22010KT 9999 BKN013 FEW020CB TEMPO 1913/1919 TS BKN013 FEW020CB BECMG 1921/1923 VRB02KT SCT009

4,000개 이상의 공항 관측 자료 및 예보 (METAR 및 TAF 보고).

지도상에서 검색 가능한 기상관측소가 노란 점과 빨간 점으로 표시되어 있습니다.

기상관측소 명을 보려면 표시 위로 마우스를 이동하세요.

날씨 관측과 예보를 보려면 클릭하세요.

지도 변경 : 확대하려면 엑스 표시가 있는 녹색 버튼, 축소하려면 빼기 표시가 있는 녹색 버튼, 다음 페이지의 지도를 보려면 녹색 화살표를 클릭하세요.


METAR-TAF: